Terminal Aerodrome Forecast
Issued by NWS

Home | Current Version | Previous Version | Text Only | Print | Product List | Glossary On
Versions: 1 2 3 4 5 6 7 8 9 10 11 12 13 14 15 16 17 18 19 20 21 22
000
FTUS44 KLIX 010531
TAFGPT
TAF
KGPT 010531Z 0106/0206 13008KT P6SM SCT080
     FM010900 15007KT P6SM BKN015
     FM011500 16011KT P6SM VCSH BKN020
      TEMPO 0117/0120 20017G28KT 2SM TSRA BKN015CB
     FM012000 16013KT P6SM SCT040 BKN150=

USA.gov is the U.S. government's official web portal to all federal, state and local government web resources and services.